Weather History for Monticello, KY

Change the Weather History Date:

Wednesday, January 30, 2013

  Actual Average Record
Temperature  
Mean Temperature 50 °F -  
Max Temperature 68 °F 47 °F 68 °F (2013)
Min Temperature 32 °F 26 °F -33 °F (1963)
Degree Days  
Heating Degree Days 14    
Moisture  
Dew Point 51 °F    
Average Humidity 92    
Maximum Humidity 100    
Minimum Humidity 73    
Precipitation  
Precipitation 1.20 in - - ()
Sea Level Pressure  
Sea Level Pressure 29.61 in    
Wind  
Wind Speed 14 mph (NE)    
Max Wind Speed 32 mph    
Max Gust Speed 41 mph    
Visibility 4 miles    
Events Fog , Rain , Snow    
Averages and records for this station are not official NWS values.
T = Trace of Precipitation, MM = Missing Value Source: NWS Daily Summary

Daily Weather History Graph

Daily Weather History Graph

Search for Another Location

Airport:

Trip Planner

Search our weather history database for the weather conditions in past years. The results will help you decide how hot, cold, wet, or windy it might be!

Date:

Astronomy

Jan. 30, 2013 Rise Set
Actual Time 6:43 AM CST 5:02 PM CST
Civil Twilight 6:15 AM CST 5:30 PM CST
Nautical Twilight 5:44 AM CST 6:01 PM CST
Astronomical Twilight 5:14 AM CST 6:31 PM CST
Moon 8:53 PM CST 8:17 AM CST
Length of Visible Light 11h 14m
Length of Day
10h 19m
Waning Gibbous, 87% of the Moon is Illuminated
Jan 30
Waning Gibbous
Feb 3
Last Quarter
Feb 10
New
Feb 17
First Quarter
Feb 25
Full

Hourly Weather History & Observations

Time (CST) Temp. Windchill Dew Point Humidity Pressure Visibility Wind Dir Wind Speed Gust Speed Precip Events Conditions
12:56 AM 66.9 °F - 59.9 °F 78% 29.68 in 10.0 mi North 19.6 mph 26.5 mph N/A   Mostly Cloudy
1:56 AM 68.9 °F - 59.9 °F 73% 29.65 in 10.0 mi North 20.7 mph 31.1 mph N/A   Mostly Cloudy
2:56 AM 68.9 °F - 59.9 °F 73% 29.61 in 10.0 mi North 23.0 mph 31.1 mph N/A   Mostly Cloudy
3:56 AM 68.9 °F - 59.9 °F 73% 29.54 in 10.0 mi North 24.2 mph 32.2 mph N/A   Mostly Cloudy
4:56 AM 68.9 °F - 59.9 °F 73% 29.48 in 10.0 mi North 32.2 mph 41.4 mph N/A   Mostly Cloudy
5:20 AM 66.2 °F - 60.8 °F 83% 29.59 in 1.2 mi East 25.3 mph 39.1 mph 0.11 in Rain Heavy Rain
5:24 AM 60.8 °F - 57.2 °F 88% 29.58 in 0.5 mi East 12.7 mph 35.7 mph 0.17 in Fog , Rain Heavy Rain
5:30 AM 59.0 °F - 57.2 °F 94% 29.58 in 0.8 mi East 9.2 mph 26.5 mph 0.19 in Rain Heavy Rain
5:32 AM 59.0 °F - 57.2 °F 94% 29.61 in 1.2 mi ENE 15.0 mph 20.7 mph 0.20 in Rain Rain
5:35 AM 59.0 °F - 57.2 °F 94% 29.60 in 2.0 mi ENE 13.8 mph 20.7 mph 0.20 in Rain Light Rain
5:44 AM 59.0 °F - 57.2 °F 94% 29.62 in 1.5 mi East 16.1 mph 24.2 mph 0.25 in Rain Rain
5:56 AM 57.9 °F - 57.9 °F 100% 29.64 in 2.0 mi ENE 13.8 mph 21.9 mph 0.28 in Rain Rain
6:17 AM 57.2 °F - 57.2 °F 100% 29.65 in 4.0 mi NE 10.4 mph - 0.03 in Rain Light Rain
6:31 AM 57.2 °F - 57.2 °F 100% 29.64 in 2.5 mi ENE 9.2 mph - 0.05 in Rain Light Rain
6:45 AM 57.2 °F - 57.2 °F 100% 29.66 in 1.5 mi NE 6.9 mph - 0.11 in Rain Heavy Rain
6:56 AM 56.8 °F - 56.8 °F 100% 29.68 in 1.8 mi NE 8.1 mph - 0.15 in Rain Rain
7:03 AM 57.2 °F - 57.2 °F 100% 29.66 in 1.0 mi NE 8.1 mph - 0.02 in Rain Rain
7:10 AM 57.2 °F - 57.2 °F 100% 29.66 in 1.5 mi NE 5.8 mph - 0.03 in Rain Light Rain
7:18 AM 55.4 °F - 55.4 °F 100% 29.65 in 3.0 mi NNE 5.8 mph - 0.04 in Rain Light Rain
7:26 AM 55.4 °F - 55.4 °F 100% 29.65 in 2.5 mi NE 5.8 mph - 0.05 in Rain Light Rain
7:31 AM 55.4 °F - 55.4 °F 100% 29.65 in 3.0 mi NE 5.8 mph - 0.06 in Rain Light Rain
7:56 AM 55.9 °F - 55.9 °F 100% 29.65 in 1.0 mi NNE 4.6 mph - 0.11 in Rain Heavy Rain
7:59 AM 55.4 °F - 55.4 °F 100% 29.64 in 0.8 mi North 4.6 mph - 0.02 in Rain Heavy Rain
8:06 AM 55.4 °F - 55.4 °F 100% 29.64 in 1.0 mi North 9.2 mph 18.4 mph 0.04 in Rain Rain
8:09 AM 55.4 °F - 55.4 °F 100% 29.64 in 1.5 mi NNW 8.1 mph 18.4 mph 0.05 in Rain Rain
8:29 AM 55.4 °F - 55.4 °F 100% 29.64 in 1.2 mi NNW 9.2 mph - 0.11 in Rain Rain
8:41 AM 55.4 °F - 55.4 °F 100% 29.63 in 1.0 mi NNW 5.8 mph - 0.18 in Rain Heavy Rain
8:49 AM 55.4 °F - 55.4 °F 100% 29.63 in 1.2 mi North 4.6 mph - 0.21 in Rain Rain
8:56 AM 55.9 °F - 55.9 °F 100% 29.63 in 1.8 mi NNW 8.1 mph - 0.22 in Rain Light Rain
9:00 AM 55.4 °F - 55.4 °F 100% 29.62 in 2.5 mi NNW 8.1 mph - 0.00 in Rain Light Rain
9:19 AM 55.4 °F - 55.4 °F 100% 29.61 in 1.5 mi NNW 10.4 mph - 0.04 in Rain Rain
9:29 AM 55.4 °F - 55.4 °F 100% 29.61 in 2.5 mi NNW 9.2 mph - 0.05 in Rain Light Rain
9:38 AM 55.4 °F - 55.4 °F 100% 29.60 in 1.5 mi NNW 9.2 mph - 0.06 in Rain Rain
9:56 AM 55.9 °F - 55.9 °F 100% 29.60 in 1.5 mi NNW 8.1 mph - 0.10 in Rain Rain
10:23 AM 55.4 °F - 55.4 °F 100% 29.58 in 1.2 mi North 9.2 mph - 0.06 in Rain Rain
10:31 AM 55.4 °F - 55.4 °F 100% 29.57 in 1.2 mi North 8.1 mph - 0.08 in Rain Rain
10:45 AM 55.4 °F - 55.4 °F 100% 29.60 in 1.5 mi NNE 9.2 mph - 0.11 in Rain Light Rain
10:56 AM 55.9 °F - 55.9 °F 100% 29.59 in 1.0 mi NNE 8.1 mph - 0.13 in Rain Rain
11:01 AM 55.4 °F - 55.4 °F 100% 29.58 in 1.5 mi North 11.5 mph - 0.00 in Rain Light Rain
11:16 AM 55.4 °F - 55.4 °F 100% 29.58 in 1.8 mi NNE 11.5 mph - 0.02 in Rain Light Rain
11:42 AM 55.4 °F - 51.8 °F 88% 29.54 in 3.0 mi North 15.0 mph - 0.06 in Rain Light Rain
11:56 AM 54.0 °F - 50.9 °F 89% 29.55 in 3.0 mi North 11.5 mph - 0.06 in Rain Light Rain
12:03 PM 53.6 °F - 51.8 °F 94% 29.54 in 2.5 mi North 13.8 mph - 0.01 in Rain Light Rain
12:13 PM 53.6 °F - 50.0 °F 88% 29.53 in 3.0 mi North 13.8 mph - 0.01 in   Overcast
12:56 PM 52.0 °F - 50.0 °F 93% 29.53 in 6.0 mi NE 8.1 mph - 0.03 in Rain Light Rain
1:56 PM 52.0 °F - 48.9 °F 89% 29.52 in 10.0 mi NNE 8.1 mph - 0.00 in   Partly Cloudy
2:56 PM 52.9 °F - 46.9 °F 80% 29.51 in 10.0 mi NE 10.4 mph - N/A   Mostly Cloudy
3:21 PM 51.8 °F - 46.4 °F 82% 29.51 in 10.0 mi NNE 9.2 mph - N/A   Mostly Cloudy
3:49 PM 51.8 °F - 46.4 °F 82% 29.49 in 10.0 mi NNE 10.4 mph - N/A   Overcast
3:56 PM 52.0 °F - 46.9 °F 83% 29.49 in 10.0 mi North 12.7 mph - N/A   Overcast
4:56 PM 52.0 °F - 45.9 °F 80% 29.48 in 10.0 mi NNE 9.2 mph - N/A   Scattered Clouds
5:56 PM 50.9 °F - 45.0 °F 80% 29.50 in 10.0 mi NNE 12.7 mph - 0.00 in   Scattered Clouds
6:26 PM 48.2 °F - 44.6 °F 87% 29.51 in 2.0 mi East 19.6 mph 31.1 mph 0.04 in Rain Heavy Rain
6:42 PM 46.4 °F 39.8 °F 44.6 °F 93% 29.51 in 3.0 mi ENE 16.1 mph 23.0 mph 0.06 in Rain Light Rain
6:56 PM 45.9 °F 37.4 °F 43.9 °F 93% 29.54 in 3.0 mi East 24.2 mph 38.0 mph 0.08 in Rain Light Rain
7:56 PM 43.0 °F 36.4 °F 39.9 °F 89% 29.60 in 7.0 mi East 12.7 mph 20.7 mph 0.02 in Rain Light Rain
8:19 PM 42.8 °F 35.4 °F 37.4 °F 81% 29.61 in 8.0 mi ENE 15.0 mph 23.0 mph 0.00 in Rain Light Rain
8:35 PM 41.0 °F 31.4 °F 37.4 °F 87% 29.61 in 4.0 mi East 21.9 mph 29.9 mph 0.00 in Rain Light Rain
8:56 PM 37.9 °F 27.1 °F 34.9 °F 89% 29.66 in 5.0 mi East 23.0 mph 32.2 mph 0.02 in Rain Light Rain
9:37 PM 37.4 °F 27.8 °F 35.6 °F 93% 29.67 in 10.0 mi East 17.3 mph 23.0 mph 0.00 in   Overcast
9:56 PM 36.0 °F 28.0 °F 34.0 °F 93% 29.72 in 10.0 mi ESE 11.5 mph 19.6 mph 0.00 in   Overcast
10:10 PM 35.6 °F 25.2 °F 32.0 °F 87% 29.71 in 9.0 mi East 18.4 mph 29.9 mph 0.00 in Rain Light Rain
10:56 PM 34.0 °F 22.4 °F 28.0 °F 79% 29.80 in 10.0 mi East 20.7 mph 31.1 mph 0.00 in   Overcast
11:34 PM 33.8 °F 22.8 °F 26.6 °F 75% 29.81 in 10.0 mi East 18.4 mph 28.8 mph 0.00 in Snow Light Snow
11:56 PM 32.9 °F 21.6 °F 26.1 °F 76% 29.85 in 10.0 mi East 18.4 mph 27.6 mph 0.00 in Rain Light Rain